Time;durP1;ratioP1;P1;durP2;ratioP2;P2;SDS_P1;SDS_P2;PMS_P1;PMS_P2;Temp;Humidity;BMP_temperature;BMP_pressure;BME280_temperature;BME280_humidity;BME280_pressure;Samples;Min_cycle;Max_cycle;Signal;HPM_P1;HPM_P2
2022/12/18 00:00:09;;;;;;;17.02;6.90;;;;;;;8.58;70.71;101826.61;1898307;75;21441;-54
2022/12/18 00:02:45;;;;;;;19.57;7.60;;;;;;;8.57;70.71;101824.86;1894129;75;21511;-55
2022/12/18 00:05:14;;;;;;;17.30;6.90;;;;;;;8.53;70.70;101828.42;1883654;76;21088;-54
2022/12/18 00:07:50;;;;;;;18.85;6.92;;;;;;;8.50;70.68;101834.14;1868502;76;21056;-56
2022/12/18 00:10:18;;;;;;;16.75;6.40;;;;;;;8.45;70.67;101835.95;1864667;75;21494;-55
2022/12/18 00:12:47;;;;;;;15.43;6.25;;;;;;;8.42;70.67;101839.05;1871253;77;21049;-54
2022/12/18 00:15:16;;;;;;;17.23;6.75;;;;;;;8.39;70.69;101833.80;1877278;76;21067;-57
2022/12/18 00:17:45;;;;;;;16.10;8.13;;;;;;;8.34;70.74;101832.56;1878145;75;21497;-51
2022/12/18 00:20:14;;;;;;;18.62;6.53;;;;;;;8.29;70.79;101829.97;1870039;76;21041;-52
2022/12/18 00:22:43;;;;;;;26.05;8.65;;;;;;;8.27;70.79;101830.89;1870837;76;21056;-53
2022/12/18 00:25:11;;;;;;;27.52;9.65;;;;;;;8.20;70.89;101835.78;1873359;75;21060;-53
2022/12/18 00:27:42;;;;;;;25.37;9.03;;;;;;;8.17;70.91;101841.05;1849994;75;21052;-50
2022/12/18 00:30:11;;;;;;;29.67;8.65;;;;;;;8.14;71.08;101843.73;1844722;78;21044;-54
2022/12/18 00:32:40;;;;;;;26.55;8.30;;;;;;;8.15;71.07;101832.34;1869438;76;21047;-51
2022/12/18 00:35:09;;;;;;;19.65;8.13;;;;;;;8.16;71.06;101836.27;1879219;76;21094;-53
2022/12/18 00:37:38;;;;;;;21.00;8.33;;;;;;;8.14;71.05;101846.36;1864923;75;21048;-57
2022/12/18 00:40:08;;;;;;;22.15;8.15;;;;;;;8.09;71.12;101848.56;1847880;78;21049;-57
2022/12/18 00:42:56;;;;;;;28.40;9.18;;;;;;;8.09;71.14;101855.12;1877175;76;21019;-56
2022/12/18 00:45:28;;;;;;;30.15;8.35;;;;;;;8.06;71.18;101852.56;1875858;76;21142;-57
2022/12/18 00:47:58;;;;;;;26.20;9.68;;;;;;;8.03;71.14;101841.22;1879280;76;21137;-57
2022/12/18 00:50:27;;;;;;;34.43;11.40;;;;;;;8.00;71.34;101836.86;1878312;76;21194;-57
2022/12/18 00:52:56;;;;;;;24.80;9.43;;;;;;;8.02;71.45;101828.56;1879228;76;21195;-57
2022/12/18 00:55:24;;;;;;;17.23;7.45;;;;;;;7.99;71.61;101818.09;1861614;75;21079;-52
2022/12/18 00:57:53;;;;;;;13.65;5.15;;;;;;;8.02;71.71;101822.01;1873299;76;21059;-56
2022/12/18 01:00:22;;;;;;;10.68;4.65;;;;;;;8.10;71.73;101812.73;1878402;76;21461;-57
2022/12/18 01:02:51;;;;;;;9.98;4.12;;;;;;;8.12;71.70;101804.40;1879252;76;21043;-58
2022/12/18 01:05:20;;;;;;;4.37;1.85;;;;;;;8.18;71.69;101800.83;1871070;76;21108;-54
2022/12/18 01:07:49;;;;;;;3.22;1.12;;;;;;;8.33;71.89;101789.27;1848519;77;21025;-54
2022/12/18 01:10:18;;;;;;;4.10;1.80;;;;;;;8.64;72.07;101783.20;1876846;76;21120;-57
2022/12/18 01:12:46;;;;;;;1.45;1.00;;;;;;;8.98;71.90;101783.57;1879866;76;21012;-55
2022/12/18 01:15:16;;;;;;;4.28;1.85;;;;;;;9.25;71.55;101786.17;1878262;76;21059;-57
2022/12/18 01:17:45;;;;;;;2.67;1.70;;;;;;;9.44;71.23;101782.80;1876976;76;21590;-54
2022/12/18 01:20:14;;;;;;;3.62;1.90;;;;;;;9.51;70.91;101791.42;1857790;76;21169;-53
2022/12/18 01:22:43;;;;;;;5.62;2.40;;;;;;;9.49;70.61;101785.79;1872041;76;21500;-51
2022/12/18 01:25:12;;;;;;;7.03;3.22;;;;;;;9.46;70.57;101781.01;1848496;78;21026;-50
2022/12/18 01:27:41;;;;;;;3.77;1.72;;;;;;;9.51;70.47;101784.86;1849258;76;21563;-53
2022/12/18 01:30:10;;;;;;;6.95;2.75;;;;;;;9.47;70.44;101789.30;1876601;76;21102;-55
2022/12/18 01:32:39;;;;;;;6.28;2.95;;;;;;;9.51;70.46;101790.57;1860691;76;21302;-52
2022/12/18 01:35:08;;;;;;;3.50;2.08;;;;;;;9.47;70.35;101788.44;1858456;76;21071;-53
2022/12/18 01:37:37;;;;;;;12.63;4.10;;;;;;;9.38;70.34;101799.97;1878149;76;21109;-55
2022/12/18 01:40:07;;;;;;;11.08;4.65;;;;;;;9.33;70.34;101794.38;1860447;76;20998;-49
2022/12/18 01:42:36;;;;;;;8.65;3.50;;;;;;;9.20;70.35;101800.28;1879123;76;21160;-53
2022/12/18 01:45:13;;;;;;;7.75;3.58;;;;;;;9.08;70.36;101806.16;1871688;76;21026;-50
2022/12/18 01:47:49;;;;;;;7.42;3.22;;;;;;;8.99;70.40;101804.98;1863820;76;21483;-53
2022/12/18 01:50:27;;;;;;;9.38;4.00;;;;;;;8.93;70.41;101811.66;1866874;75;21046;-51
2022/12/18 01:53:13;;;;;;;7.05;2.98;;;;;;;8.87;70.50;101806.06;1879465;76;21055;-57
2022/12/18 01:55:45;;;;;;;6.58;3.25;;;;;;;8.83;70.53;101805.66;1871462;76;21142;-57
2022/12/18 01:58:15;;;;;;;7.20;3.15;;;;;;;8.76;70.44;101810.60;1848849;77;21143;-57
2022/12/18 02:00:44;;;;;;;7.55;2.95;;;;;;;8.70;70.49;101798.85;1872266;75;21023;-56
2022/12/18 02:03:13;;;;;;;8.03;3.30;;;;;;;8.67;70.53;101804.17;1915872;75;21035;-57
2022/12/18 02:05:45;;;;;;;5.72;2.67;;;;;;;8.66;70.63;101814.23;1897107;75;21073;-57
2022/12/18 02:08:22;;;;;;;5.12;3.10;;;;;;;8.67;70.74;101802.86;1897528;75;21096;-57
2022/12/18 02:11:20;;;;;;;7.47;3.25;;;;;;;8.68;70.85;101801.95;1882417;75;21076;-57
2022/12/18 02:14:03;;;;;;;10.25;3.00;;;;;;;8.66;70.91;101807.67;1897697;75;21567;-57
2022/12/18 02:16:45;;;;;;;;;;;;;;;8.64;70.82;101808.14;1899928;75;21509;-57
2022/12/18 02:19:33;;;;;;;4.87;1.80;;;;;;;8.61;70.72;101801.61;1897280;75;20147;-57
2022/12/18 02:22:21;;;;;;;6.45;2.50;;;;;;;8.58;70.80;101807.78;1880765;75;21050;-58
2022/12/18 02:24:58;;;;;;;4.45;2.22;;;;;;;8.70;70.75;101802.79;1897043;75;21578;-57
2022/12/18 02:27:30;;;;;;;5.45;1.72;;;;;;;8.92;71.02;101795.92;1897436;75;21063;-58
2022/12/18 02:30:02;;;;;;;2.80;1.40;;;;;;;9.18;70.94;101806.02;1897839;75;21047;-58
2022/12/18 02:32:36;;;;;;;4.15;2.35;;;;;;;9.68;70.87;101800.78;1898690;74;21506;-58
2022/12/18 02:35:08;;;;;;;2.10;1.27;;;;;;;10.03;70.31;101803.63;1897928;75;21075;-59
2022/12/18 02:37:39;;;;;;;1.98;1.10;;;;;;;10.32;69.88;101798.22;1861245;75;21050;-59
2022/12/18 02:40:11;;;;;;;2.98;1.40;;;;;;;10.52;69.52;101788.59;1897889;75;21038;-58
2022/12/18 02:42:40;;;;;;;2.65;1.70;;;;;;;10.69;69.25;101788.66;1894569;75;21085;-58
2022/12/18 02:45:10;;;;;;;2.33;1.30;;;;;;;10.76;69.03;101788.48;1897629;75;21493;-58
2022/12/18 02:47:42;;;;;;;2.85;1.37;;;;;;;10.88;68.89;101789.09;1897888;75;21047;-58
2022/12/18 02:50:18;;;;;;;5.10;1.72;;;;;;;10.97;68.66;101800.73;1897707;75;21169;-58
2022/12/18 02:53:06;;;;;;;2.92;1.37;;;;;;;11.00;68.52;101800.67;1897602;75;21073;-58
2022/12/18 02:55:56;;;;;;;5.33;2.33;;;;;;;10.96;68.28;101804.29;1896969;75;21356;-59
2022/12/18 02:58:39;;;;;;;4.40;2.20;;;;;;;10.88;68.21;101800.95;1892702;75;21086;-58
2022/12/18 03:01:31;;;;;;;6.20;2.37;;;;;;;10.77;68.17;101802.51;1888640;75;21120;-57
2022/12/18 03:04:17;;;;;;;4.55;1.52;;;;;;;10.72;68.22;101807.90;1854303;75;21252;-59
2022/12/18 03:06:52;;;;;;;2.70;1.67;;;;;;;10.60;68.19;101817.38;1895144;75;21020;-57
2022/12/18 03:09:24;;;;;;;3.83;1.60;;;;;;;10.46;68.24;101816.80;1872205;76;21141;-59
2022/12/18 03:14:46;;;;;;;2.77;1.65;;;;;;;10.28;68.52;101811.01;1898506;75;21135;-55
2022/12/18 03:17:18;;;;;;;4.03;1.20;;;;;;;10.36;68.63;101826.22;1899529;75;21150;-57
2022/12/18 03:19:49;;;;;;;2.47;1.40;;;;;;;10.43;68.69;101828.28;1876479;76;21083;-57
2022/12/18 03:22:19;;;;;;;2.08;1.30;;;;;;;10.57;68.65;101818.78;1863044;76;21086;-62
2022/12/18 03:24:50;;;;;;;1.22;0.95;;;;;;;10.79;68.52;101806.00;1855356;76;21168;-60
2022/12/18 03:27:21;;;;;;;2.35;0.90;;;;;;;10.99;68.22;101813.42;1878888;76;21098;-50
2022/12/18 03:29:53;;;;;;;2.65;1.30;;;;;;;11.12;67.96;101820.58;1878708;76;21156;-60
2022/12/18 03:32:29;;;;;;;3.17;1.60;;;;;;;11.18;67.81;101821.78;1861591;75;21450;-61
2022/12/18 03:35:02;;;;;;;2.40;1.45;;;;;;;11.23;67.69;101815.05;1847375;77;21101;-61
2022/12/18 03:37:32;;;;;;;3.60;1.27;;;;;;;11.38;67.25;101812.06;1877363;76;21132;-58
2022/12/18 03:40:02;;;;;;;2.52;1.32;;;;;;;11.45;67.11;101806.16;1877626;76;21076;-58
2022/12/18 03:42:37;;;;;;;1.60;1.00;;;;;;;11.56;66.65;101802.35;1853052;76;21137;-58
2022/12/18 03:45:28;;;;;;;2.33;1.20;;;;;;;11.79;65.78;101799.55;1877347;76;21615;-58
2022/12/18 03:48:09;;;;;;;3.22;1.30;;;;;;;11.96;65.19;101796.01;1852264;77;21056;-58
2022/12/18 03:50:47;;;;;;;1.90;0.98;;;;;;;12.10;64.79;101797.42;1881436;76;21189;-58
2022/12/18 03:53:23;;;;;;;1.90;1.32;;;;;;;12.20;64.29;101786.98;1891621;76;21050;-50
2022/12/18 03:55:53;;;;;;;1.65;1.05;;;;;;;12.26;64.19;101793.39;1892731;75;21477;-50
2022/12/18 03:58:25;;;;;;;2.60;1.50;;;;;;;12.28;64.07;101794.67;1863990;77;21059;-51
2022/12/18 04:00:59;;;;;;;2.05;1.07;;;;;;;12.24;64.11;101799.18;1870369;76;21068;-51
2022/12/18 04:03:30;;;;;;;1.82;1.10;;;;;;;12.22;63.83;101796.19;1900037;75;21080;-51
2022/12/18 04:06:01;;;;;;;2.30;1.25;;;;;;;12.23;63.91;101790.87;1921666;75;21086;-52
2022/12/18 04:08:30;;;;;;;2.15;1.00;;;;;;;12.28;63.65;101788.97;1910066;75;21121;-52
2022/12/18 04:11:01;;;;;;;2.15;1.17;;;;;;;12.32;63.52;101780.46;1916145;74;21093;-52
2022/12/18 04:13:33;;;;;;;2.67;1.25;;;;;;;12.35;63.36;101781.23;1916973;75;21509;-53
2022/12/18 04:16:03;;;;;;;2.13;0.90;;;;;;;12.38;63.09;101792.66;1904326;75;21059;-53
2022/12/18 04:18:32;;;;;;;2.37;1.25;;;;;;;12.42;62.88;101797.78;1904107;75;21790;-55
2022/12/18 04:21:01;;;;;;;1.77;1.20;;;;;;;12.42;63.03;101802.20;1880485;75;21243;-56
2022/12/18 04:23:30;;;;;;;2.37;1.30;;;;;;;12.39;63.13;101798.33;1873568;76;21501;-55
2022/12/18 04:26:00;;;;;;;3.62;1.05;;;;;;;12.34;63.29;101791.88;1884742;75;21180;-55
2022/12/18 04:28:30;;;;;;;2.50;1.32;;;;;;;12.33;63.15;101794.95;1897735;75;21158;-55
2022/12/18 04:30:59;;;;;;;1.87;1.15;;;;;;;12.32;63.31;101802.91;1903983;75;21071;-55
2022/12/18 04:33:28;;;;;;;1.95;0.90;;;;;;;12.31;63.34;101804.70;1903871;75;21158;-57
2022/12/18 04:35:58;;;;;;;2.72;1.37;;;;;;;12.32;63.31;101810.41;1901480;75;21144;-56
2022/12/18 04:38:27;;;;;;;2.90;1.20;;;;;;;12.32;63.40;101807.77;1905107;75;21132;-57
2022/12/18 04:40:57;;;;;;;2.67;1.20;;;;;;;12.36;63.39;101816.00;1903813;75;21050;-57
2022/12/18 04:43:27;;;;;;;2.98;1.20;;;;;;;12.37;63.35;101814.22;1902305;75;21137;-55
2022/12/18 04:46:05;;;;;;;3.75;1.20;;;;;;;12.41;63.30;101818.95;1893237;75;21055;-58
2022/12/18 04:48:33;;;;;;;3.25;1.50;;;;;;;12.44;63.24;101819.73;1893003;75;21101;-58
2022/12/18 04:51:03;;;;;;;1.85;1.10;;;;;;;12.46;63.19;101815.73;1903897;75;21805;-56
2022/12/18 04:53:33;;;;;;;5.17;1.17;;;;;;;12.49;63.17;101819.14;1902071;75;21514;-56
2022/12/18 04:56:10;;;;;;;2.45;1.30;;;;;;;12.52;63.14;101826.09;1902202;75;21536;-53
2022/12/18 04:58:40;;;;;;;3.20;1.20;;;;;;;12.51;63.16;101819.95;1901826;75;21629;-54
2022/12/18 05:01:10;;;;;;;4.42;1.40;;;;;;;12.52;63.14;101816.42;1903573;75;21486;-53
2022/12/18 05:03:39;;;;;;;7.00;1.65;;;;;;;12.49;63.23;101823.11;1901420;75;21043;-55
2022/12/18 05:06:09;;;;;;;1.98;1.12;;;;;;;12.47;63.26;101820.11;1891925;75;21150;-52
2022/12/18 05:08:37;;;;;;;3.75;1.50;;;;;;;12.43;63.34;101822.41;1880563;75;21505;-56
2022/12/18 05:11:12;;;;;;;3.35;1.50;;;;;;;12.42;63.43;101824.66;1913553;74;21054;-56
2022/12/18 05:13:41;;;;;;;3.00;1.47;;;;;;;12.42;63.43;101820.70;1917508;74;21083;-55
2022/12/18 05:16:10;;;;;;;5.65;1.95;;;;;;;12.43;63.33;101822.41;1882936;75;21083;-55
2022/12/18 05:18:39;;;;;;;12.78;3.00;;;;;;;12.40;63.26;101826.48;1903965;75;21463;-48
2022/12/18 05:21:08;;;;;;;6.50;2.00;;;;;;;12.36;63.15;101830.98;1904182;75;21138;-47
2022/12/18 05:23:37;;;;;;;9.35;1.52;;;;;;;12.32;63.20;101824.04;1903996;75;21467;-47
2022/12/18 05:26:07;;;;;;;7.60;1.92;;;;;;;12.29;63.20;101827.64;1904298;75;21559;-49
2022/12/18 05:28:37;;;;;;;6.92;2.40;;;;;;;12.30;62.95;101829.39;1890210;75;21047;-56
2022/12/18 05:31:06;;;;;;;6.58;2.02;;;;;;;12.35;62.95;101829.24;1905491;75;21062;-56
2022/12/18 05:33:36;;;;;;;6.42;1.40;;;;;;;12.41;62.64;101826.87;1905248;75;21552;-56
2022/12/18 05:36:07;;;;;;;5.25;1.75;;;;;;;12.49;62.42;101831.50;1899147;75;21450;-56
2022/12/18 05:38:38;;;;;;;5.33;2.08;;;;;;;12.64;62.21;101840.73;1893972;75;21082;-56
2022/12/18 05:41:07;;;;;;;9.35;2.58;;;;;;;12.82;62.02;101851.19;1899658;75;21125;-57
2022/12/18 05:43:38;;;;;;;7.92;2.90;;;;;;;12.97;61.79;101844.12;1900265;75;21051;-53
2022/12/18 05:46:09;;;;;;;8.75;2.50;;;;;;;13.05;61.72;101850.48;1904843;75;21353;-49
2022/12/18 05:48:38;;;;;;;5.97;2.65;;;;;;;13.13;61.67;101855.05;1904092;75;21047;-49
2022/12/18 05:51:12;;;;;;;6.00;2.77;;;;;;;13.32;61.24;101873.89;1900701;75;21239;-51
2022/12/18 05:53:42;;;;;;;4.30;2.05;;;;;;;13.45;60.98;101877.86;1910631;74;21145;-50
2022/12/18 05:56:16;;;;;;;5.20;2.30;;;;;;;13.39;61.00;101876.75;1920833;74;21534;-53
2022/12/18 05:58:46;;;;;;;5.55;2.00;;;;;;;13.25;61.15;101875.83;1900273;75;21466;-52
2022/12/18 06:01:18;;;;;;;9.15;2.50;;;;;;;13.16;61.38;101879.23;1889843;75;21466;-50
2022/12/18 06:03:47;;;;;;;8.55;3.62;;;;;;;13.07;61.55;101874.63;1899192;74;21467;-52
2022/12/18 06:06:27;;;;;;;8.38;2.92;;;;;;;13.00;61.59;101882.34;1883993;75;21024;-56
2022/12/18 06:08:56;;;;;;;3.83;2.00;;;;;;;12.94;61.70;101877.25;1877493;75;21031;-54
2022/12/18 06:11:27;;;;;;;2.98;1.37;;;;;;;12.94;61.69;101879.89;1905430;75;21509;-56
2022/12/18 06:13:57;;;;;;;2.62;1.27;;;;;;;13.03;61.54;101869.03;1904238;75;21079;-55
2022/12/18 06:16:26;;;;;;;2.05;1.05;;;;;;;13.24;61.23;101878.52;1909186;73;21142;-55
2022/12/18 06:18:57;;;;;;;2.40;1.22;;;;;;;13.60;60.81;101872.52;1895683;75;21235;-55
2022/12/18 06:21:26;;;;;;;2.52;1.20;;;;;;;14.00;59.63;101874.23;1887612;75;21070;-55
2022/12/18 06:23:56;;;;;;;3.50;1.35;;;;;;;14.22;59.28;101875.22;1904074;75;21541;-47
2022/12/18 06:26:24;;;;;;;7.62;1.10;;;;;;;14.28;59.34;101881.61;1904124;74;21757;-54
2022/12/18 06:28:53;;;;;;;2.35;1.20;;;;;;;14.33;59.38;101884.55;1905337;75;21048;-53
2022/12/18 06:31:22;;;;;;;3.92;1.30;;;;;;;14.44;59.57;101885.91;1905484;75;21110;-51
2022/12/18 06:33:51;;;;;;;3.55;1.50;;;;;;;14.56;59.24;101892.52;1901518;75;21086;-53
2022/12/18 06:36:23;;;;;;;3.83;1.60;;;;;;;14.76;59.04;101890.95;1899150;74;21097;-55
2022/12/18 06:38:50;;;;;;;3.00;1.30;;;;;;;14.89;58.84;101896.64;1915884;74;21029;-57
2022/12/18 06:41:21;;;;;;;3.62;1.52;;;;;;;14.86;58.85;101901.58;1907130;74;21041;-58
2022/12/18 06:43:50;;;;;;;6.83;2.90;;;;;;;14.83;58.75;101900.40;1922996;74;21040;-60
2022/12/18 06:46:20;;;;;;;6.45;3.12;;;;;;;14.83;58.87;101903.05;1915690;74;21002;-60
2022/12/18 06:48:49;;;;;;;6.83;3.83;;;;;;;14.90;58.98;101904.52;1922257;74;21428;-58
2022/12/18 06:51:23;;;;;;;6.70;3.15;;;;;;;15.00;58.95;101915.18;1916189;74;21660;-58
2022/12/18 06:53:52;;;;;;;3.40;1.95;;;;;;;15.02;58.91;101912.00;1920848;74;21086;-58
2022/12/18 06:56:20;;;;;;;2.58;1.27;;;;;;;15.08;58.96;101918.00;1925233;74;21060;-57
2022/12/18 06:58:49;;;;;;;2.45;1.67;;;;;;;15.11;58.93;101920.55;1930081;74;21173;-57
2022/12/18 07:01:18;;;;;;;4.30;1.70;;;;;;;15.28;58.95;101918.54;1919266;74;21041;-57
2022/12/18 07:03:48;;;;;;;5.28;2.08;;;;;;;15.53;58.81;101915.30;1922828;74;21139;-58
2022/12/18 07:06:19;;;;;;;6.67;2.20;;;;;;;15.59;59.09;101912.85;1928550;74;21041;-55
2022/12/18 07:08:48;;;;;;;4.83;1.75;;;;;;;15.75;59.10;101912.64;1928432;74;21409;-55
2022/12/18 07:11:18;;;;;;;2.00;1.27;;;;;;;16.23;58.62;101905.73;1896187;74;21117;-56
2022/12/18 07:13:47;;;;;;;2.50;1.45;;;;;;;16.54;58.12;101914.08;1885747;75;21043;-56
2022/12/18 07:16:19;;;;;;;3.67;1.47;;;;;;;17.03;57.25;101909.62;1909800;74;21148;-56
2022/12/18 07:18:48;;;;;;;3.95;1.72;;;;;;;17.39;56.51;101906.58;1904844;75;21120;-56
2022/12/18 07:21:19;;;;;;;4.30;1.65;;;;;;;17.83;55.84;101915.00;1890574;75;21046;-56
2022/12/18 07:23:48;;;;;;;5.87;2.10;;;;;;;18.40;54.88;101918.74;1884994;76;21175;-56
2022/12/18 07:26:20;;;;;;;3.22;1.37;;;;;;;18.95;53.72;101920.73;1839482;76;21122;-56
2022/12/18 07:28:52;;;;;;;3.37;1.82;;;;;;;19.58;53.02;101923.81;1859172;77;21103;-54
2022/12/18 07:31:22;;;;;;;4.90;1.87;;;;;;;19.56;52.77;101925.23;1866639;76;21067;-57
2022/12/18 07:33:52;;;;;;;3.70;1.80;;;;;;;19.55;52.61;101927.55;1870102;76;21044;-53
2022/12/18 07:36:24;;;;;;;4.35;2.37;;;;;;;19.41;53.08;101929.66;1890910;76;21072;-54
2022/12/18 07:38:53;;;;;;;2.90;1.67;;;;;;;19.64;52.43;101932.34;1823382;77;21246;-57
2022/12/18 07:41:22;;;;;;;3.42;1.70;;;;;;;20.27;50.96;101933.11;1859273;76;21061;-53
2022/12/18 07:43:52;;;;;;;3.75;1.90;;;;;;;21.07;49.87;101942.84;1851525;76;21096;-53
2022/12/18 07:46:21;;;;;;;6.90;2.17;;;;;;;21.72;48.86;101934.61;1890367;76;21110;-54
2022/12/18 07:48:50;;;;;;;4.22;2.08;;;;;;;22.03;48.11;101935.22;1836979;77;21166;-58
2022/12/18 07:51:19;;;;;;;4.97;2.05;;;;;;;22.58;47.39;101935.42;1859287;76;21139;-58
2022/12/18 07:53:48;;;;;;;6.75;2.00;;;;;;;22.61;46.87;101928.50;1876511;76;21591;-57
2022/12/18 07:56:17;;;;;;;5.65;2.10;;;;;;;21.71;47.61;101925.72;1890743;76;21118;-57
2022/12/18 07:58:49;;;;;;;3.15;1.92;;;;;;;20.73;48.46;101932.96;1905868;75;21103;-57
2022/12/18 08:01:18;;;;;;;3.87;1.90;;;;;;;19.98;49.30;101929.52;1905777;75;21047;-58
2022/12/18 08:03:48;;;;;;;2.60;1.52;;;;;;;19.45;50.44;101943.70;1904567;75;21047;-58
2022/12/18 08:06:17;;;;;;;3.75;1.80;;;;;;;18.98;50.92;101941.44;1904846;75;21150;-56
2022/12/18 08:08:46;;;;;;;3.87;1.80;;;;;;;18.46;51.76;101946.44;1901490;74;21035;-56
2022/12/18 08:11:14;;;;;;;4.42;1.90;;;;;;;18.05;52.61;101938.77;1902575;75;21031;-56
2022/12/18 08:13:43;;;;;;;4.28;2.20;;;;;;;17.83;53.21;101936.79;1899673;75;21083;-56
2022/12/18 08:16:12;;;;;;;5.08;2.37;;;;;;;17.69;53.72;101933.02;1902979;74;21039;-56
2022/12/18 08:18:42;;;;;;;6.40;2.10;;;;;;;17.64;54.08;101929.72;1898935;75;21101;-54
2022/12/18 08:21:21;;;;;;;4.83;2.33;;;;;;;17.83;54.02;101938.13;1898362;75;21079;-52
2022/12/18 08:23:52;;;;;;;3.87;2.10;;;;;;;17.83;54.19;101932.31;1905885;75;21047;-52
2022/12/18 08:26:21;;;;;;;5.55;2.10;;;;;;;17.69;54.56;101930.36;1898452;75;21114;-55
2022/12/18 08:28:51;;;;;;;4.78;2.37;;;;;;;17.69;54.82;101922.38;1894698;74;21019;-54
2022/12/18 08:31:24;;;;;;;8.38;2.87;;;;;;;17.73;55.26;101915.95;1900217;75;21510;-57
2022/12/18 08:33:52;;;;;;;6.83;2.70;;;;;;;17.79;55.43;101916.58;1895383;75;21048;-52
2022/12/18 08:36:22;;;;;;;5.55;3.22;;;;;;;17.77;55.85;101913.98;1893764;75;21458;-55
2022/12/18 08:38:51;;;;;;;6.47;2.83;;;;;;;17.69;56.49;101897.55;1893855;75;21482;-56
2022/12/18 08:41:20;;;;;;;9.85;3.08;;;;;;;17.66;56.67;101898.55;1904995;74;21149;-57
2022/12/18 08:46:41;;;;;;;5.25;2.87;;;;;;;17.60;57.29;101890.02;1898685;74;21043;-55
2022/12/18 08:49:13;;;;;;;4.12;2.42;;;;;;;17.80;57.19;101896.97;1893759;74;21145;-54
2022/12/18 08:51:42;;;;;;;6.87;2.75;;;;;;;18.51;56.00;101896.84;1906005;74;21035;-56
2022/12/18 08:54:13;;;;;;;6.92;2.62;;;;;;;18.88;55.25;101898.37;1912352;74;21168;-52
2022/12/18 08:56:42;;;;;;;8.68;3.90;;;;;;;18.96;55.30;101897.08;1889529;75;21113;-56
2022/12/18 08:59:11;;;;;;;7.33;2.70;;;;;;;19.30;54.88;101910.72;1893853;75;21144;-56
2022/12/18 09:01:39;;;;;;;7.37;3.05;;;;;;;19.61;54.42;101891.11;1907361;74;21047;-54
2022/12/18 09:04:10;;;;;;;6.90;2.85;;;;;;;19.59;54.59;101894.34;1901431;75;21028;-55
2022/12/18 09:06:39;;;;;;;6.17;3.15;;;;;;;19.48;54.94;101900.80;1884142;75;21086;-52
2022/12/18 09:09:08;;;;;;;9.80;3.35;;;;;;;19.65;54.78;101908.67;1882151;75;21134;-54
2022/12/18 09:11:36;;;;;;;7.08;3.83;;;;;;;19.50;55.20;101910.91;1905926;75;21101;-53
2022/12/18 09:14:05;;;;;;;6.67;3.33;;;;;;;19.22;55.85;101916.51;1905894;75;21043;-56
2022/12/18 09:16:34;;;;;;;10.90;3.37;;;;;;;18.87;56.44;101914.01;1906139;74;21162;-56
2022/12/18 09:19:05;;;;;;;7.25;3.27;;;;;;;18.48;56.96;101916.99;1936090;74;21511;-55
2022/12/18 09:21:43;;;;;;;7.75;3.98;;;;;;;18.08;57.42;101918.64;1927529;74;21190;-51
2022/12/18 09:24:12;;;;;;;7.22;2.50;;;;;;;17.75;57.93;101924.72;1898069;75;21141;-57
2022/12/18 09:26:41;;;;;;;5.47;2.70;;;;;;;17.50;58.45;101933.53;1883780;75;21430;-57
2022/12/18 09:29:10;;;;;;;4.83;2.58;;;;;;;17.30;58.83;101940.71;1873403;76;21543;-49
2022/12/18 09:31:39;;;;;;;5.78;2.47;;;;;;;17.11;59.24;101949.16;1925906;74;21612;-53
2022/12/18 09:34:09;;;;;;;5.80;2.80;;;;;;;16.96;59.59;101944.10;1922442;74;21037;-53
2022/12/18 09:36:38;;;;;;;6.50;3.55;;;;;;;16.80;60.00;101950.55;1926731;74;21029;-54
2022/12/18 09:39:06;;;;;;;9.58;4.80;;;;;;;16.69;60.30;101941.77;1909113;74;21021;-54
2022/12/18 09:41:38;;;;;;;15.03;5.90;;;;;;;16.58;60.94;101942.25;1918987;74;21019;-49
2022/12/18 09:44:28;;;;;;;5.67;3.15;;;;;;;16.52;61.12;101938.52;1921358;74;21105;-51
2022/12/18 09:47:06;;;;;;;8.65;3.55;;;;;;;16.42;61.56;101938.55;1917595;74;21025;-49
2022/12/18 09:49:37;;;;;;;8.65;3.72;;;;;;;16.38;61.77;101935.63;1926324;74;21178;-54
2022/12/18 09:52:28;;;;;;;10.75;4.17;;;;;;;16.37;61.81;101930.76;1920648;74;21033;-50
2022/12/18 09:55:07;;;;;;;7.60;3.45;;;;;;;16.39;62.12;101930.70;1924920;74;21068;-57
2022/12/18 09:57:39;;;;;;;6.62;3.00;;;;;;;16.51;61.96;101930.62;1924467;74;21021;-57
2022/12/18 10:00:13;;;;;;;5.85;2.90;;;;;;;16.92;61.38;101935.39;1926133;74;21505;-52
2022/12/18 10:02:42;;;;;;;8.28;3.62;;;;;;;17.61;60.27;101931.67;1924909;74;21518;-57
2022/12/18 10:05:17;;;;;;;7.15;3.10;;;;;;;18.04;59.61;101929.55;1908276;74;21007;-56
2022/12/18 10:08:12;;;;;;;9.20;4.03;;;;;;;19.02;57.86;101936.80;1923619;74;21668;-55
2022/12/18 10:10:51;;;;;;;7.97;3.80;;;;;;;19.73;56.48;101943.47;1917003;74;21049;-47
2022/12/18 10:13:39;;;;;;;6.03;2.72;;;;;;;20.23;55.68;101942.25;1927724;74;21001;-48
2022/12/18 10:16:11;;;;;;;5.70;3.05;;;;;;;20.44;55.33;101941.43;1923395;74;21009;-56
2022/12/18 10:18:48;;;;;;;6.00;2.67;;;;;;;20.13;55.94;101951.80;1918149;73;21584;-54
2022/12/18 10:21:23;;;;;;;7.35;2.90;;;;;;;19.50;57.12;101952.31;1923533;74;21193;-57
2022/12/18 10:24:00;;;;;;;9.53;3.60;;;;;;;18.86;58.22;101960.30;1911104;74;21183;-58
2022/12/18 10:26:31;;;;;;;5.12;2.90;;;;;;;18.39;59.09;101969.48;1891821;75;21159;-57
2022/12/18 10:29:01;;;;;;;6.28;3.12;;;;;;;17.93;59.87;101968.26;1906768;75;21124;-57
2022/12/18 10:31:29;;;;;;;6.70;2.60;;;;;;;17.60;60.46;101971.25;1916749;73;21218;-57
2022/12/18 10:33:58;;;;;;;5.72;2.90;;;;;;;17.32;61.02;101980.09;1918444;75;21010;-58
2022/12/18 10:36:27;;;;;;;7.47;3.05;;;;;;;17.09;61.52;101971.00;1916800;73;21219;-59
2022/12/18 10:39:01;;;;;;;7.75;3.35;;;;;;;16.89;61.93;101978.57;1924619;73;21031;-58
2022/12/18 10:41:32;;;;;;;10.82;3.72;;;;;;;16.77;62.26;101975.98;1922046;73;21225;-57
2022/12/18 10:44:25;;;;;;;10.23;3.62;;;;;;;16.66;62.75;101983.59;1899506;75;21145;-57
2022/12/18 10:47:00;;;;;;;11.38;4.20;;;;;;;16.54;63.01;101980.55;1917595;74;21121;-57
2022/12/18 10:49:32;;;;;;;11.18;3.75;;;;;;;16.40;63.42;101977.15;1921133;74;21493;-57
2022/12/18 10:52:21;;;;;;;9.60;4.20;;;;;;;16.32;63.62;101976.64;1931928;73;21025;-55
2022/12/18 10:54:53;;;;;;;9.90;4.17;;;;;;;16.25;63.95;101980.48;1906909;75;21010;-57
2022/12/18 10:57:41;;;;;;;6.53;3.65;;;;;;;16.19;64.07;101989.59;1888312;76;21062;-57
2022/12/18 11:00:28;;;;;;;11.93;4.85;;;;;;;16.16;64.15;101999.01;1911354;75;21591;-56
2022/12/18 11:02:58;;;;;;;12.00;6.10;;;;;;;16.10;64.24;101997.95;1916856;73;21030;-56
2022/12/18 11:05:32;;;;;;;17.45;7.62;;;;;;;15.95;64.50;102006.10;1921115;75;21059;-56
2022/12/18 11:08:02;;;;;;;18.42;7.55;;;;;;;15.66;64.94;102024.52;1920201;74;21034;-56
2022/12/18 11:10:36;;;;;;;19.32;7.95;;;;;;;15.36;65.38;102036.73;1913846;73;21097;-57
2022/12/18 11:13:20;;;;;;;19.25;8.75;;;;;;;15.02;66.32;102040.64;1898084;75;21505;-56
2022/12/18 11:15:49;;;;;;;18.60;8.40;;;;;;;14.69;67.06;102045.86;1921254;75;21062;-56
2022/12/18 11:18:29;;;;;;;19.17;7.70;;;;;;;14.57;67.13;102055.97;1920364;75;21042;-56
2022/12/18 11:21:04;;;;;;;16.77;8.25;;;;;;;14.48;67.27;102056.27;1902870;74;21490;-55
2022/12/18 11:23:36;;;;;;;17.25;8.35;;;;;;;14.40;67.17;102063.59;1924632;74;21148;-57
2022/12/18 11:26:06;;;;;;;18.67;8.40;;;;;;;14.25;67.52;102056.55;1921390;75;21129;-52
2022/12/18 11:28:46;;;;;;;21.37;7.92;;;;;;;14.07;68.13;102066.44;1905349;74;21181;-53
2022/12/18 11:31:32;;;;;;;17.55;7.90;;;;;;;13.91;68.33;102062.11;1907330;74;21019;-53
2022/12/18 11:34:13;;;;;;;19.87;8.58;;;;;;;13.77;68.82;102053.73;1889808;74;21695;-51
2022/12/18 11:36:44;;;;;;;18.70;7.37;;;;;;;13.69;69.38;102062.77;1879936;75;21559;-53
2022/12/18 11:39:34;;;;;;;18.80;8.08;;;;;;;13.56;69.67;102049.98;1882170;75;21101;-51
2022/12/18 11:42:14;;;;;;;16.00;7.87;;;;;;;13.50;69.41;102052.33;1905951;75;21027;-56
2022/12/18 11:44:57;;;;;;;17.92;6.25;;;;;;;13.44;69.33;102055.17;1897806;74;21110;-56
2022/12/18 11:47:45;;;;;;;15.72;7.80;;;;;;;13.39;69.93;102068.55;1893394;75;21098;-56
2022/12/18 11:50:19;;;;;;;16.73;6.87;;;;;;;13.19;69.63;102070.89;1873930;76;21571;-56
2022/12/18 11:52:48;;;;;;;15.98;7.50;;;;;;;13.04;69.93;102091.56;1872846;76;21562;-56
2022/12/18 11:55:41;;;;;;;15.43;6.25;;;;;;;12.89;70.17;102089.31;1895078;75;21015;-59